Latest Weather Observations for Hobart

IDT60901

Issued at 11:31 am EDT Saturday 28 March 2015 (issued every 10 minutes, with the page automatically refreshed every 10 minutes)

About weather observations | Map of Hobart area stations | Latest observations for Hobart area | Other Formats
Station Details ID: 094029 Name: HOBART (ELLERSLIE ROAD) Lat: -42.89 Lon: 147.33 Height: 50.5 m
Data from the previous 72 hours. | See also: Recent months at Hobart
Date/Time
EDT
Tmp

°C
App
Tmp
°C
Dew
Point
°C
Rel
Hum
%
Delta-T

°C
Wind Press
QNH
hPa
Press
MSL
hPa
Rain
since
9 am
mm
Dir
 
Spd
km/h
Gust
km/h
Spd
kts
Gust
kts
28/11:30am 15.7 12.0 6.4 54 4.5 NW 15 24 8 13 1020.7 1020.7 0.0
28/11:00am 15.9 11.4 5.9 51 4.8 NNW 19 26 10 14 1020.9 1020.9 0.0
28/10:30am 15.6 11.5 6.3 54 4.5 NNW 17 24 9 13 1021.0 1021.0 0.0
28/10:00am 14.6 10.4 5.8 55 4.2 NW 17 28 9 15 1021.1 1021.1 0.0
28/09:30am 13.9 9.7 5.9 58 3.8 NW 17 24 9 13 1020.9 1020.9 0.0
28/09:00am 12.9 10.9 6.4 64 3.1 N 6 9 3 5 1021.1 1021.1 3.6
28/08:30am 11.1 10.6 7.8 80 1.6 CALM 0 0 0 0 1021.1 1021.1 3.6
28/08:00am 9.6 7.6 7.3 85 1.1 SW 7 9 4 5 1021.0 1021.0 3.6
28/07:30am 9.0 6.6 6.9 87 1.0 NNW 9 13 5 7 1020.8 1020.8 3.6
28/06:30am 9.8 7.9 7.5 85 1.1 SW 7 11 4 6 1020.5 1020.5 3.6
28/05:30am 9.7 7.9 7.8 88 0.9 WNW 7 11 4 6 1020.0 1020.0 3.6
28/05:00am 10.2 8.9 7.7 84 1.2 NNW 4 9 2 5 1020.0 1020.0 3.6
28/04:30am 9.9 8.1 8.0 88 0.9 W 7 11 4 6 1020.0 1020.0 3.6
28/04:00am 10.9 9.3 7.8 81 1.5 WSW 6 13 3 7 1020.0 1020.0 3.6
28/03:30am 10.9 9.3 8.0 82 1.4 SSW 6 9 3 5 1020.2 1020.2 3.6
28/03:00am 11.2 10.8 8.1 81 1.5 CALM 0 0 0 0 1020.3 1020.3 3.6
28/02:30am 11.8 9.9 7.5 75 2.1 S 7 13 4 7 1020.4 1020.4 3.6
28/02:00am 11.8 10.0 8.1 78 1.8 S 7 9 4 5 1020.4 1020.4 3.6
28/01:30am 12.1 10.0 8.2 77 1.9 N 9 15 5 8 1020.3 1020.3 3.6
28/01:00am 12.5 11.6 7.8 73 2.3 WSW 2 7 1 4 1020.4 1020.4 3.6
28/12:30am 12.0 10.0 8.6 80 1.7 WNW 9 13 5 7 1020.3 1020.3 3.6
 
Date/Time
EDT
Tmp

°C
App
Tmp
°C
Dew
Point
°C
Rel
Hum
%
Delta-T

°C
Wind Press
QNH
hPa
Press
MSL
hPa
Rain
since
9 am
mm
Dir
 
Spd
km/h
Gust
km/h
Spd
kts
Gust
kts
27/11:30pm 12.3 9.5 8.7 79 1.8 SSW 13 17 7 9 1020.1 1020.1 3.6
27/11:00pm 12.5 9.4 8.7 77 1.9 S 15 19 8 10 1020.1 1020.1 3.6
27/10:30pm 12.8 9.2 8.4 74 2.2 SSW 17 26 9 14 1020.0 1020.0 3.6
27/10:00pm 12.8 10.0 8.4 74 2.2 SSW 13 17 7 9 1019.9 1019.9 3.6
27/09:30pm 12.9 9.3 8.3 73 2.3 SSW 17 24 9 13 1019.7 1019.6 3.6
27/09:00pm 12.6 9.8 8.6 76 2.0 SSW 13 19 7 10 1019.5 1019.4 3.6
27/08:30pm 12.8 9.6 8.6 75 2.1 SSW 15 22 8 12 1019.1 1019.0 3.6
27/08:00pm 12.7 8.8 8.7 76 2.0 SSW 19 30 10 16 1018.7 1018.6 3.6
27/07:30pm 13.0 9.7 8.2 72 2.4 SSW 15 26 8 14 1018.3 1018.2 3.6
27/07:00pm 12.8 9.6 8.6 75 2.1 SSW 15 30 8 16 1018.0 1017.9 3.6
27/06:30pm 12.9 9.1 8.9 76 2.0 SSW 19 26 10 14 1017.5 1017.4 3.6
27/05:30pm 13.0 8.4 9.5 79 1.8 SSW 24 39 13 21 1016.7 1016.6 3.6
27/05:00pm 13.0 8.1 9.9 81 1.6 SSW 26 44 14 24 1016.2 1016.1 3.6
27/04:52pm 13.0 7.4 10.3 84 1.4 SSW 30 48 16 26 1016.1 1016.0 3.6
27/04:30pm 13.0 9.6 11.1 88 1.0 SSW 20 39 11 21 1016.0 1015.9 3.4
27/04:00pm 13.1 8.8 10.6 85 1.3 SSW 24 35 13 19 1015.9 1015.8 2.6
27/03:30pm 13.9 9.4 10.0 77 2.0 SSW 24 35 13 19 1015.4 1015.3 2.6
27/03:00pm 13.3 9.5 11.0 86 1.2 SSW 22 35 12 19 1015.1 1015.0 2.6
27/02:30pm 15.6 9.2 8.7 63 3.5 SSW 32 50 17 27 1014.5 1014.4 2.4
27/02:00pm 15.5 7.3 8.2 62 3.7 S 41 63 22 34 1014.2 1014.1 2.4
27/01:30pm 14.5 8.6 9.0 69 2.8 S 30 52 16 28 1014.1 1014.0 2.4
27/01:00pm 14.8 8.9 8.9 68 3.0 SSW 30 50 16 27 1013.8 1013.7 2.4
27/12:59pm 14.8 9.3 9.1 68 2.9 SSW 28 50 15 27 1013.9 1013.8 2.4
27/12:30pm 13.9 7.6 9.0 72 2.5 SSW 32 44 17 24 1013.7 1013.6 2.4
27/12:16pm 13.9 7.6 9.0 72 2.5 SSW 32 50 17 27 1013.4 1013.3 2.4
27/12:00pm 13.8 7.6 9.5 75 2.2 SSW 32 46 17 25 1013.3 1013.2 2.4
27/11:49am 13.7 8.2 9.0 73 2.4 SSW 28 48 15 26 1013.0 1012.9 2.4
27/11:30am 12.4 8.3 8.8 79 1.8 SSW 20 28 11 15 1013.1 1013.0 2.4
27/11:04am 12.4 6.7 8.4 76 2.0 SSW 28 46 15 25 1012.8 1012.7 2.4
27/11:00am 12.4 7.5 8.4 76 2.0 SSW 24 32 13 17 1012.8 1012.7 2.4
27/10:30am 11.1 9.3 9.3 89 0.9 W 9 15 5 8 1012.7 1012.6 2.4
27/10:00am 9.7 7.3 8.5 92 0.6 NNW 11 15 6 8 1012.2 1012.1 2.0
27/09:30am 9.4 6.1 8.2 92 0.6 NNW 15 20 8 11 1011.9 1011.8 1.0
27/09:00am 9.3 7.1 7.8 90 0.7 NNW 9 13 5 7 1011.3 1011.2 20.6
27/08:30am 9.2 6.1 7.3 88 0.9 NNW 13 19 7 10 1010.9 1010.8 19.2
27/08:00am 9.2 5.7 7.1 87 1.0 NNW 15 22 8 12 1010.5 1010.4 18.4
27/07:30am 9.3 6.9 7.0 85 1.1 NNE 9 20 5 11 1010.2 1010.2 17.6
27/07:00am 9.0 7.1 7.7 91 0.6 W 7 15 4 8 1009.9 1009.9 17.0
27/06:30am 8.9 7.2 7.6 91 0.6 NNW 6 9 3 5 1009.7 1009.7 16.6
27/06:00am 8.9 7.1 7.0 88 0.9 NNW 6 9 3 5 1009.7 1009.7 15.8
27/05:30am 8.9 7.2 7.4 90 0.7 NNE 6 13 3 7 1009.6 1009.6 15.6
27/05:00am 8.9 6.8 6.8 87 1.0 N 7 11 4 6 1009.7 1009.7 15.6
27/04:30am 9.0 6.5 6.4 84 1.2 NW 9 13 5 7 1009.9 1009.9 15.4
27/04:00am 8.9 7.7 6.3 84 1.2 NNW 2 7 1 4 1010.0 1010.0 15.4
27/03:30am 9.1 5.8 6.3 83 1.3 NW 13 19 7 10 1010.4 1010.3 15.4
27/03:00am 8.8 6.2 6.2 84 1.2 W 9 13 5 7 1010.7 1010.6 15.4
27/02:30am 8.7 6.3 6.8 88 0.9 WNW 9 13 5 7 1010.8 1010.7 15.4
27/02:00am 9.0 6.6 6.9 87 1.0 NW 9 13 5 7 1010.9 1010.8 15.4
27/01:30am 9.0 7.0 6.9 87 1.0 WNW 7 11 4 6 1011.0 1010.9 15.4
27/01:00am 9.0 7.1 6.9 87 1.0 NW 6 11 3 6 1011.1 1011.0 15.4
27/12:30am 9.1 7.3 7.0 87 1.0 NW 6 13 3 7 1011.0 1010.9 15.4
27/12:00am 9.6 6.8 7.1 84 1.2 WSW 11 15 6 8 1011.3 1011.2 15.4
 
Date/Time
EDT
Tmp

°C
App
Tmp
°C
Dew
Point
°C
Rel
Hum
%
Delta-T

°C
Wind Press
QNH
hPa
Press
MSL
hPa
Rain
since
9 am
mm
Dir
 
Spd
km/h
Gust
km/h
Spd
kts
Gust
kts
26/11:30pm 9.2 7.0 7.7 90 0.7 SW 9 13 5 7 1011.3 1011.2 15.4
26/11:00pm 9.4 8.5 7.9 90 0.7 WNW 2 9 1 5 1011.0 1010.9 15.4
26/10:30pm 9.7 7.6 8.3 91 0.7 WNW 9 13 5 7 1011.1 1011.0 15.4
26/10:00pm 9.9 7.9 8.7 92 0.6 W 9 15 5 8 1011.4 1011.3 15.0
26/09:30pm 10.3 8.3 8.7 90 0.8 W 9 13 5 7 1011.5 1011.4 15.0
26/09:00pm 10.7 9.4 9.3 91 0.7 W 6 9 3 5 1011.5 1011.4 15.0
26/08:30pm 11.3 9.6 8.5 83 1.4 SE 7 11 4 6 1011.2 1011.1 15.0
26/08:00pm 11.0 9.6 9.0 87 1.0 ESE 6 9 3 5 1011.1 1011.0 15.0
26/07:30pm 11.1 10.4 8.7 85 1.2 E 2 11 1 6 1010.8 1010.7 15.0
26/07:00pm 10.6 9.1 8.6 87 1.0 SSE 6 11 3 6 1010.4 1010.3 15.0
26/06:30pm 11.4 9.0 8.6 83 1.4 SSW 11 32 6 17 1010.1 1010.1 11.0
26/06:00pm 13.4 9.6 9.7 78 1.9 SSE 20 32 11 17 1009.4 1009.4 1.8
26/05:30pm 15.4 11.8 6.6 55 4.3 SSW 15 24 8 13 1009.2 1009.2 0.4
26/05:00pm 15.8 12.4 5.9 51 4.8 NNE 13 20 7 11 1008.9 1008.9 0.4
26/04:30pm 16.6 13.2 5.9 49 5.2 N 13 22 7 12 1009.1 1009.1 0.4
26/04:00pm 16.0 11.5 5.9 51 4.9 N 19 28 10 15 1009.4 1009.4 0.4
26/03:30pm 16.7 12.0 6.1 49 5.2 NNW 20 28 11 15 1009.5 1009.5 0.4
26/03:00pm 16.8 12.1 5.9 48 5.3 NNW 20 28 11 15 1009.8 1009.8 0.4
26/02:30pm 16.6 13.3 7.9 56 4.4 NNW 15 22 8 12 1010.0 1010.0 0.4
26/02:00pm 15.4 12.3 7.1 57 4.1 NNW 13 19 7 10 1010.4 1010.3 0.4
26/01:30pm 14.5 11.2 8.1 65 3.2 NNW 15 20 8 11 1010.7 1010.6 0.4
26/01:00pm 14.7 11.1 8.4 66 3.2 NW 17 24 9 13 1011.0 1010.9 0.4
26/12:30pm 13.6 11.7 8.9 73 2.4 NE 9 15 5 8 1011.0 1010.9 0.4
26/12:00pm 13.9 11.8 9.6 75 2.2 SE 11 17 6 9 1010.9 1010.8 0.4
26/11:30am 13.8 10.3 8.9 72 2.5 NNW 17 20 9 11 1011.0 1010.9 0.4
26/11:00am 11.1 8.6 9.7 91 0.7 N 13 19 7 10 1011.8 1011.7 0.4
26/10:30am 10.9 7.7 9.9 93 0.5 NW 17 24 9 13 1011.6 1011.5 0.4
26/10:00am 10.7 9.3 9.7 93 0.5 N 7 15 4 8 1011.9 1011.8 0.4
26/09:30am 10.5 9.0 9.3 92 0.6 SSW 7 13 4 7 1011.2 1011.1 0.2
26/09:00am 10.2 8.1 9.6 96 0.3 S 11 20 6 11 1011.3 1011.2 11.4
26/08:30am 10.1 8.2 9.1 93 0.5 W 9 17 5 9 1012.0 1011.9 8.8
26/08:00am 9.7 7.0 9.1 96 0.3 WSW 13 20 7 11 1011.9 1011.8 6.6
26/07:30am 10.2 8.8 9.0 92 0.6 SW 6 7 3 4 1011.8 1011.7 1.8
26/07:00am 10.1 8.3 8.0 87 1.0 WSW 7 9 4 5 1011.2 1011.1 0.4
26/06:30am 10.1 8.1 7.2 82 1.4 NW 7 11 4 6 1011.7 1011.6 0.0
26/06:00am 10.0 7.9 5.6 74 2.0 W 6 9 3 5 1012.0 1011.9 0.0
26/05:30am 9.6 7.9 5.9 78 1.7 WNW 4 9 2 5 1012.6 1012.5 0.0
26/05:00am 9.3 5.8 5.3 76 1.8 WSW 13 15 7 8 1012.5 1012.4 0.0
26/04:30am 9.0 5.6 5.7 80 1.5 W 13 15 7 8 1012.8 1012.7 0.0
26/04:00am 9.5 6.8 5.6 76 1.8 WSW 9 13 5 7 1012.9 1012.8 0.0
26/03:30am 9.9 8.3 6.5 79 1.6 NW 4 7 2 4 1013.3 1013.2 0.0
26/03:00am 10.8 9.3 6.8 76 1.9 NNE 4 9 2 5 1013.1 1013.0 0.0
26/02:30am 11.2 8.0 6.8 74 2.1 NNW 13 17 7 9 1013.7 1013.6 0.0
26/02:00am 11.8 9.0 6.8 71 2.4 NNE 11 17 6 9 1013.7 1013.6 0.0
26/01:30am 11.5 10.1 7.1 74 2.1 NNW 4 9 2 5 1014.0 1013.9 0.0
26/01:00am 12.3 10.4 7.4 72 2.4 NNW 7 11 4 6 1014.2 1014.1 0.0
26/12:30am 13.6 10.4 6.8 63 3.3 N 13 22 7 12 1014.2 1014.1 0.0
26/12:00am 13.5 10.7 6.9 64 3.2 N 11 15 6 8 1014.3 1014.2 0.0
 
Date/Time
EDT
Tmp

°C
App
Tmp
°C
Dew
Point
°C
Rel
Hum
%
Delta-T

°C
Wind Press
QNH
hPa
Press
MSL
hPa
Rain
since
9 am
mm
Dir
 
Spd
km/h
Gust
km/h
Spd
kts
Gust
kts
25/11:30pm 13.4 10.2 7.0 65 3.1 NNE 13 20 7 11 1014.2 1014.1 0.0
25/11:00pm 13.8 11.1 7.5 66 3.1 NNW 11 17 6 9 1014.1 1014.0 0.0
25/10:30pm 13.8 11.5 7.5 66 3.1 N 9 15 5 8 1014.1 1014.0 0.0
25/10:00pm 12.9 12.4 8.0 72 2.4 CALM 0 7 0 4 1014.2 1014.1 0.0
25/09:30pm 13.6 12.0 8.2 70 2.7 N 6 9 3 5 1013.9 1013.8 0.0
25/09:00pm 13.7 13.3 8.3 70 2.7 CALM 0 0 0 0 1013.8 1013.7 0.0
25/08:30pm 14.9 13.1 8.1 64 3.4 E 7 11 4 6 1013.6 1013.5 0.0
25/08:00pm 15.2 13.5 8.3 63 3.5 ENE 7 13 4 7 1013.4 1013.3 0.0
25/07:30pm 15.6 13.3 7.6 59 4.0 NE 9 15 5 8 1013.2 1013.1 0.0
25/07:00pm 15.9 13.8 8.2 60 3.9 S 9 15 5 8 1013.1 1013.0 0.0
25/06:30pm 16.4 13.8 7.9 57 4.3 ESE 11 15 6 8 1012.9 1012.8 0.0
25/06:00pm 16.5 12.8 7.8 56 4.4 ESE 17 24 9 13 1012.6 1012.5 0.0
25/05:30pm 17.0 12.9 6.4 49 5.2 ESE 17 24 9 13 1012.4 1012.3 0.0
25/05:00pm 17.3 12.3 6.6 49 5.3 ESE 22 30 12 16 1012.1 1012.0 0.0
25/04:30pm 19.3 15.5 3.7 35 7.4 NE 13 19 7 10 1012.1 1012.0 0.0
25/04:00pm 19.6 15.7 3.3 34 7.7 N 13 22 7 12 1012.3 1012.2 0.0
25/03:30pm 19.3 15.0 3.1 34 7.6 NW 15 26 8 14 1012.4 1012.3 0.0
25/03:00pm 19.6 16.1 3.3 34 7.7 NW 11 17 6 9 1012.8 1012.7 0.0
25/02:30pm 20.0 17.0 3.9 34 7.7 NW 9 17 5 9 1012.9 1012.8 0.0
25/02:00pm 18.4 15.0 3.8 38 6.9 NNW 11 24 6 13 1013.4 1013.3 0.0
25/01:30pm 19.9 14.4 4.0 35 7.6 NW 22 35 12 19 1013.9 1013.8 0.0
25/01:00pm 18.0 12.3 2.8 36 7.0 NNW 22 35 12 19 1014.3 1014.2 0.0
25/12:30pm 17.0 11.4 3.4 40 6.3 NW 22 37 12 20 1014.4 1014.3 0.0
25/12:00pm 16.3 10.6 2.6 39 6.2 NW 22 32 12 17 1014.7 1014.6 0.0

Latest Capital City Observations: Canberra | Sydney | Melbourne | Brisbane | Adelaide | Perth | Hobart | Darwin

Other Formats:

Comma delimited format used in spreadsheet applications
http://www.bom.gov.au/fwo/IDT60901/IDT60901.94970.axf

JavaScript Object Notation format (JSON) in row-major order
http://www.bom.gov.au/fwo/IDT60901/IDT60901.94970.json